Time;durP1;ratioP1;P1;durP2;ratioP2;P2;SDS_P1;SDS_P2;PMS_P1;PMS_P2;Temp;Humidity;BMP_temperature;BMP_pressure;BME280_temperature;BME280_humidity;BME280_pressure;Samples;Min_cycle;Max_cycle;Signal;HPM_P1;HPM_P2
2023/12/22 00:01:31;;;;;;;7.00;1.40;;;;;;;1.87;100.00;98344.22;7397912;19;20018;-69
2023/12/22 00:04:00;;;;;;;6.28;1.27;;;;;;;1.18;100.00;98349.31;7395925;19;20011;-70
2023/12/22 00:06:35;;;;;;;7.80;1.58;;;;;;;0.67;100.00;98356.38;7397756;19;20014;-70
2023/12/22 00:09:04;;;;;;;4.05;0.90;;;;;;;0.28;100.00;98333.03;7394003;19;20023;-71
2023/12/22 00:11:32;;;;;;;5.25;1.27;;;;;;;0.05;100.00;98305.94;7396776;19;20018;-71
2023/12/22 00:14:01;;;;;;;3.97;1.27;;;;;;;-0.05;100.00;98343.94;7395493;19;20014;-71
2023/12/22 00:16:32;;;;;;;4.70;1.20;;;;;;;-0.09;100.00;98338.84;7397051;19;20073;-71
2023/12/22 00:19:00;;;;;;;4.38;1.13;;;;;;;-0.08;100.00;98327.66;7397032;19;20553;-70
2023/12/22 00:21:29;;;;;;;8.88;1.40;;;;;;;-0.03;100.00;98342.16;7397218;19;20018;-70
2023/12/22 00:23:58;;;;;;;9.73;1.33;;;;;;;0.05;100.00;98344.63;7395823;19;20014;-69
2023/12/22 00:26:26;;;;;;;5.47;1.30;;;;;;;0.09;100.00;98366.88;7397144;19;20430;-69
2023/12/22 00:28:55;;;;;;;7.90;1.25;;;;;;;0.14;100.00;98359.09;7395777;19;20078;-69
2023/12/22 00:31:23;;;;;;;5.72;1.40;;;;;;;0.17;100.00;98359.03;7397054;19;20015;-69
2023/12/22 00:33:54;;;;;;;5.60;1.80;;;;;;;0.23;100.00;98410.50;7395574;19;20018;-68
2023/12/22 00:36:24;;;;;;;8.55;0.98;;;;;;;0.27;100.00;98357.97;7396860;19;20010;-69
2023/12/22 00:38:52;;;;;;;8.30;1.40;;;;;;;0.30;100.00;98359.63;7396259;19;20179;-69
2023/12/22 00:41:21;;;;;;;10.25;1.63;;;;;;;0.36;100.00;98361.28;7394631;19;20544;-69
2023/12/22 00:43:49;;;;;;;13.60;1.50;;;;;;;0.40;100.00;98358.59;7395308;19;20092;-69
2023/12/22 00:46:18;;;;;;;4.22;1.25;;;;;;;0.42;100.00;98359.41;7396546;19;20014;-68
2023/12/22 00:48:47;;;;;;;5.85;1.38;;;;;;;0.47;100.00;98359.34;7395478;19;20400;-68
2023/12/22 00:51:18;;;;;;;8.70;1.50;;;;;;;0.51;100.00;98355.81;7396363;19;20023;-68
2023/12/22 00:53:47;;;;;;;8.73;1.98;;;;;;;0.55;100.00;98359.19;7395201;19;20014;-69
2023/12/22 00:56:15;;;;;;;18.95;2.60;;;;;;;0.58;100.00;98362.56;7396147;19;20011;-68
2023/12/22 00:58:44;;;;;;;9.20;1.55;;;;;;;0.63;100.00;98359.88;7396035;19;20066;-68
2023/12/22 01:01:12;;;;;;;14.98;2.35;;;;;;;0.66;100.00;98367.56;7396119;19;20069;-68
2023/12/22 01:03:41;;;;;;;10.30;2.47;;;;;;;0.70;100.00;98370.94;7394876;19;20043;-68
2023/12/22 01:06:09;;;;;;;20.08;3.58;;;;;;;0.73;100.00;98357.97;7395586;19;20062;-68
2023/12/22 01:08:42;;;;;;;19.40;3.38;;;;;;;0.79;100.00;98353.53;7395349;19;20014;-68
2023/12/22 01:11:10;;;;;;;15.75;3.38;;;;;;;0.86;100.00;98351.69;7395428;19;20505;-68
2023/12/22 01:13:38;;;;;;;18.33;3.72;;;;;;;0.92;100.00;98353.28;7394525;19;20014;-68
2023/12/22 01:16:07;;;;;;;22.08;3.65;;;;;;;1.02;100.00;98359.09;7394467;19;20090;-68
2023/12/22 01:18:36;;;;;;;20.55;5.50;;;;;;;1.08;100.00;98364.97;7395056;19;20509;-68
2023/12/22 01:21:04;;;;;;;26.25;4.07;;;;;;;1.17;100.00;98358.75;7394716;19;20078;-68
2023/12/22 01:23:33;;;;;;;35.05;4.70;;;;;;;1.25;100.00;98353.44;7393136;19;20384;-68
2023/12/22 01:26:04;;;;;;;24.85;4.03;;;;;;;1.30;100.00;98355.03;7393588;19;20097;-68
2023/12/22 01:28:32;;;;;;;28.05;4.32;;;;;;;1.36;100.00;98369.53;7395439;19;20368;-68
2023/12/22 01:31:01;;;;;;;25.80;4.13;;;;;;;1.43;100.00;98368.53;7394411;19;20014;-68
2023/12/22 01:33:29;;;;;;;21.70;4.47;;;;;;;1.50;100.00;98412.31;7393263;19;20014;-68
2023/12/22 01:35:58;;;;;;;28.00;4.47;;;;;;;1.56;100.00;98378.59;7393336;19;20018;-68
2023/12/22 01:38:26;;;;;;;25.52;4.00;;;;;;;1.60;100.00;98390.53;7394540;19;20019;-68
2023/12/22 01:40:55;;;;;;;14.00;4.35;;;;;;;1.66;100.00;98390.41;7394844;19;20023;-68
2023/12/22 01:43:26;;;;;;;20.83;4.13;;;;;;;1.70;100.00;98379.09;7393777;19;20094;-68
2023/12/22 01:45:58;;;;;;;11.82;3.10;;;;;;;1.72;100.00;98392.84;7393429;19;20023;-68
2023/12/22 01:48:28;;;;;;;15.05;3.78;;;;;;;1.73;100.00;98368.69;7394289;19;20014;-68
2023/12/22 01:50:58;;;;;;;15.27;3.72;;;;;;;1.76;100.00;98358.28;7394650;19;20078;-68
2023/12/22 01:53:28;;;;;;;12.05;3.50;;;;;;;1.77;100.00;98365.16;7393493;19;20015;-68
2023/12/22 01:55:58;;;;;;;12.38;3.35;;;;;;;1.79;100.00;98381.47;7392164;19;20419;-68
2023/12/22 01:58:31;;;;;;;19.45;3.70;;;;;;;1.82;100.00;98390.03;7394859;19;20002;-68
2023/12/22 02:01:00;;;;;;;19.15;3.53;;;;;;;1.86;100.00;98396.81;7394101;19;20010;-68
2023/12/22 02:03:28;;;;;;;15.13;3.40;;;;;;;1.88;100.00;98389.88;7393167;19;20090;-68
2023/12/22 02:05:57;;;;;;;12.38;3.13;;;;;;;1.87;100.00;98383.00;7393898;19;20438;-68
2023/12/22 02:08:28;;;;;;;20.17;2.65;;;;;;;1.87;100.00;98381.28;7394193;19;20019;-68
2023/12/22 02:10:57;;;;;;;11.55;2.60;;;;;;;1.88;100.00;98374.38;7392462;19;20031;-68
2023/12/22 02:13:25;;;;;;;12.30;2.15;;;;;;;1.86;100.00;98379.59;7393002;19;20027;-68
2023/12/22 02:16:04;;;;;;;12.43;2.83;;;;;;;1.87;100.00;98376.13;7392299;19;20078;-68
2023/12/22 02:18:37;;;;;;;9.45;2.13;;;;;;;1.87;100.00;98364.91;7394590;19;20023;-68
2023/12/22 02:21:13;;;;;;;6.75;1.88;;;;;;;1.87;100.00;98363.19;7391402;19;20360;-68
2023/12/22 02:23:44;;;;;;;9.77;1.90;;;;;;;1.90;100.00;98385.53;7392632;19;20098;-68
2023/12/22 02:26:18;;;;;;;10.32;2.28;;;;;;;1.91;100.00;98371.72;7394229;19;20019;-68
2023/12/22 02:28:48;;;;;;;;;;;;;;;1.92;100.00;98389.78;7393939;19;20074;-68
2023/12/22 02:31:22;;;;;;;5.75;1.50;;;;;;;1.94;100.00;98384.56;7394046;19;19914;-69
2023/12/22 02:33:55;;;;;;;6.20;1.73;;;;;;;1.94;100.00;98380.22;7396391;19;20066;-68
2023/12/22 02:36:25;;;;;;;10.25;2.13;;;;;;;1.95;100.00;98391.44;7398716;19;20026;-68
2023/12/22 02:38:57;;;;;;;8.02;1.92;;;;;;;1.95;100.00;98391.44;7400305;19;20508;-68
2023/12/22 02:41:26;;;;;;;5.75;1.63;;;;;;;1.94;100.00;98410.44;7398116;19;20424;-68
2023/12/22 02:43:55;;;;;;;8.73;1.75;;;;;;;1.94;100.00;98392.34;7397924;19;20015;-68
2023/12/22 02:46:23;;;;;;;7.95;2.05;;;;;;;1.95;100.00;98406.97;7400500;19;20027;-68
2023/12/22 02:48:52;;;;;;;10.70;2.67;;;;;;;1.95;100.00;98418.16;7400140;19;20011;-68
2023/12/22 02:51:20;;;;;;;12.95;2.28;;;;;;;1.96;100.00;98406.09;7399888;19;20078;-68
2023/12/22 02:53:49;;;;;;;6.57;1.58;;;;;;;2.01;100.00;98426.66;7397602;19;20070;-68
2023/12/22 02:56:20;;;;;;;9.40;2.05;;;;;;;2.02;100.00;98415.41;7399751;19;20019;-69
2023/12/22 02:58:48;;;;;;;7.93;1.70;;;;;;;2.06;100.00;98404.09;7398007;19;20359;-68
2023/12/22 03:01:17;;;;;;;6.93;1.95;;;;;;;2.07;100.00;98414.44;7399616;19;20018;-68
2023/12/22 03:03:45;;;;;;;7.57;1.83;;;;;;;2.08;100.00;98441.13;7398205;19;20030;-68
2023/12/22 03:06:14;;;;;;;6.38;1.75;;;;;;;2.10;100.00;98455.72;7399432;19;20070;-69
2023/12/22 03:08:42;;;;;;;7.97;2.35;;;;;;;2.15;100.00;98426.31;7397381;19;20018;-69
2023/12/22 03:11:11;;;;;;;13.57;1.90;;;;;;;2.18;100.00;98406.38;7397042;19;20432;-69
2023/12/22 03:13:42;;;;;;;10.50;2.13;;;;;;;2.19;100.00;98400.34;7399010;19;20010;-69
2023/12/22 03:16:18;;;;;;;11.00;2.20;;;;;;;2.22;100.00;98417.50;7399016;19;20027;-69
2023/12/22 03:18:46;;;;;;;15.18;2.75;;;;;;;2.24;100.00;98415.75;7401332;19;20030;-70
2023/12/22 03:21:20;;;;;;;12.82;1.65;;;;;;;2.23;100.00;98412.28;7400024;19;20010;-68
2023/12/22 03:23:48;;;;;;;14.15;2.53;;;;;;;2.23;100.00;98435.56;7397898;19;20031;-69
2023/12/22 03:26:17;;;;;;;7.38;1.63;;;;;;;2.23;100.00;98456.28;7399111;19;20082;-69
2023/12/22 03:28:48;;;;;;;9.38;1.95;;;;;;;2.23;100.00;98399.34;7396761;19;20027;-69
2023/12/22 03:31:16;;;;;;;10.90;1.63;;;;;;;2.21;100.00;98447.72;7397108;19;20027;-69
2023/12/22 03:33:45;;;;;;;8.85;1.88;;;;;;;2.20;100.00;98414.09;7397257;19;20027;-69
2023/12/22 03:36:14;;;;;;;8.63;1.70;;;;;;;2.17;100.00;98424.53;7398147;19;20549;-69
2023/12/22 03:38:42;;;;;;;8.77;1.90;;;;;;;2.10;100.00;98411.75;7398287;19;20019;-69
2023/12/22 03:41:11;;;;;;;11.65;1.70;;;;;;;2.05;100.00;98430.88;7398549;19;20027;-69
2023/12/22 03:43:39;;;;;;;8.38;1.83;;;;;;;1.98;100.00;98437.91;7396531;19;20414;-69
2023/12/22 03:46:10;;;;;;;10.57;2.53;;;;;;;1.95;100.00;98405.22;7398469;19;20019;-68
2023/12/22 03:48:39;;;;;;;5.78;1.25;;;;;;;1.92;100.00;98405.31;7398495;19;20482;-68
2023/12/22 03:51:07;;;;;;;6.22;1.95;;;;;;;1.89;100.00;98394.19;7398690;19;20419;-67
2023/12/22 03:53:36;;;;;;;5.95;1.70;;;;;;;1.87;100.00;98401.13;7397069;19;20081;-68
2023/12/22 03:56:04;;;;;;;9.25;2.50;;;;;;;1.84;100.00;98411.53;7397653;19;20536;-68
2023/12/22 03:58:33;;;;;;;9.75;2.15;;;;;;;1.83;100.00;98402.91;7397914;19;20019;-68
2023/12/22 04:01:01;;;;;;;5.97;1.35;;;;;;;1.85;100.00;98411.50;7397918;19;20031;-68
2023/12/22 04:03:32;;;;;;;12.75;3.20;;;;;;;1.85;100.00;98397.75;7395746;19;20018;-67
2023/12/22 04:06:04;;;;;;;8.10;1.73;;;;;;;1.87;100.00;98394.22;7398248;19;20073;-68
2023/12/22 04:08:32;;;;;;;10.25;2.08;;;;;;;1.88;100.00;98380.38;7397944;19;20066;-68
2023/12/22 04:11:01;;;;;;;6.82;1.80;;;;;;;1.91;100.00;98401.00;7395986;19;20031;-68
2023/12/22 04:13:29;;;;;;;4.68;1.23;;;;;;;1.92;100.00;98391.50;7395962;19;20494;-68
2023/12/22 04:15:58;;;;;;;7.07;1.60;;;;;;;1.93;100.00;98401.84;7395674;19;20018;-68
2023/12/22 04:18:26;;;;;;;12.00;2.13;;;;;;;1.97;100.00;98406.91;7396847;19;20006;-68
2023/12/22 04:20:57;;;;;;;12.50;2.08;;;;;;;2.00;100.00;98386.13;7397234;19;20014;-68
2023/12/22 04:23:26;;;;;;;11.50;1.80;;;;;;;2.01;100.00;98378.38;7395958;19;20485;-68
2023/12/22 04:25:54;;;;;;;13.13;2.17;;;;;;;2.03;100.00;98383.50;7396705;19;20019;-67
2023/12/22 04:28:22;;;;;;;8.90;1.80;;;;;;;2.05;100.00;98364.47;7396879;19;20022;-68
2023/12/22 04:30:51;;;;;;;14.80;2.10;;;;;;;2.07;100.00;98378.22;7394786;19;20430;-68
2023/12/22 04:33:19;;;;;;;8.23;1.80;;;;;;;2.10;100.00;98362.59;7395823;19;20019;-68
2023/12/22 04:35:48;;;;;;;13.65;1.83;;;;;;;2.15;100.00;98352.16;7396279;19;20481;-68
2023/12/22 04:38:19;;;;;;;10.90;1.92;;;;;;;2.16;100.00;98351.28;7394772;19;20018;-68
2023/12/22 04:40:47;;;;;;;6.63;1.40;;;;;;;2.17;100.00;98365.03;7396910;19;20028;-68
2023/12/22 04:43:16;;;;;;;11.98;2.05;;;;;;;2.18;100.00;98344.28;7395629;19;20022;-68
2023/12/22 04:45:44;;;;;;;14.18;2.40;;;;;;;2.21;100.00;98338.19;7394315;19;20022;-68
2023/12/22 04:48:12;;;;;;;4.82;1.25;;;;;;;2.23;100.00;98329.50;7396393;19;20022;-68
2023/12/22 04:50:41;;;;;;;8.32;1.52;;;;;;;2.24;100.00;98336.38;7394912;19;20027;-68
2023/12/22 04:53:09;;;;;;;10.95;1.90;;;;;;;2.28;100.00;98396.66;7395143;19;20018;-68
2023/12/22 04:55:40;;;;;;;6.88;1.67;;;;;;;2.30;99.51;98363.84;7394720;19;20010;-68
2023/12/22 04:58:09;;;;;;;9.85;1.73;;;;;;;2.34;100.00;98334.41;7394888;19;20019;-68
2023/12/22 05:00:37;;;;;;;11.57;2.17;;;;;;;2.38;100.00;98330.00;7395882;19;20027;-68
2023/12/22 05:03:06;;;;;;;6.38;2.17;;;;;;;2.39;100.00;98324.78;7395046;19;20036;-68
2023/12/22 05:05:35;;;;;;;10.70;2.33;;;;;;;2.40;100.00;98336.81;7395708;19;20019;-68
2023/12/22 05:08:03;;;;;;;5.93;1.83;;;;;;;2.44;100.00;98347.94;7395282;19;20027;-68
2023/12/22 05:10:41;;;;;;;7.95;1.73;;;;;;;2.47;100.00;98353.03;7394891;19;20019;-68
2023/12/22 05:13:09;;;;;;;11.68;1.77;;;;;;;2.51;100.00;98377.09;7394440;19;20037;-68
2023/12/22 05:15:38;;;;;;;9.15;1.75;;;;;;;2.53;100.00;98360.63;7394106;19;20033;-68
2023/12/22 05:18:06;;;;;;;6.40;1.98;;;;;;;2.52;99.05;98340.81;7393673;19;20010;-68
2023/12/22 05:20:35;;;;;;;8.27;1.80;;;;;;;2.53;100.00;98339.09;7395159;19;20411;-68
2023/12/22 05:23:03;;;;;;;5.68;2.97;;;;;;;2.52;100.00;98387.41;7394395;19;20019;-68
2023/12/22 05:25:32;;;;;;;6.80;1.23;;;;;;;2.52;98.78;98371.03;7395073;19;20023;-68
2023/12/22 05:28:03;;;;;;;9.10;1.80;;;;;;;2.55;99.91;98352.81;7395093;19;20014;-68
2023/12/22 05:30:31;;;;;;;12.73;1.88;;;;;;;2.58;97.00;98427.81;7394855;19;20011;-68
2023/12/22 05:33:00;;;;;;;9.40;2.10;;;;;;;2.57;98.22;98382.09;7393873;19;20473;-68
2023/12/22 05:35:28;;;;;;;8.95;1.70;;;;;;;2.55;98.98;98394.22;7394860;19;20010;-68
2023/12/22 05:37:57;;;;;;;5.35;1.50;;;;;;;2.49;98.67;98405.63;7395233;19;20014;-68
2023/12/22 05:40:25;;;;;;;3.85;1.17;;;;;;;2.43;98.00;98396.25;7394379;19;20014;-69
2023/12/22 05:42:54;;;;;;;4.95;1.17;;;;;;;2.35;98.81;98305.06;7393135;19;20018;-69
2023/12/22 05:45:25;;;;;;;1.95;0.80;;;;;;;2.17;99.23;98398.66;7394566;19;20027;-68
2023/12/22 05:47:54;;;;;;;3.05;1.27;;;;;;;1.94;100.00;98372.47;7395255;19;20015;-69
2023/12/22 05:50:22;;;;;;;1.65;0.60;;;;;;;1.74;100.00;98444.50;7394202;19;20070;-68
2023/12/22 05:52:50;;;;;;;3.08;0.40;;;;;;;1.59;100.00;98388.84;7394044;19;20015;-69
2023/12/22 05:55:19;;;;;;;1.90;0.43;;;;;;;1.42;100.00;98479.66;7394600;19;20011;-68
2023/12/22 05:57:47;;;;;;;1.42;0.73;;;;;;;1.29;100.00;98388.66;7393881;19;20014;-69
2023/12/22 06:00:17;;;;;;;1.50;0.73;;;;;;;1.11;100.00;98442.41;7392688;19;20372;-68
2023/12/22 06:02:48;;;;;;;1.73;0.88;;;;;;;1.01;100.00;98406.47;7392567;19;20070;-68
2023/12/22 06:05:17;;;;;;;2.45;0.60;;;;;;;0.91;100.00;98460.00;7393589;19;20070;-69
2023/12/22 06:07:45;;;;;;;3.83;1.10;;;;;;;0.82;100.00;98442.97;7395547;19;20090;-68
2023/12/22 06:10:13;;;;;;;4.15;1.35;;;;;;;0.74;100.00;98447.44;7400454;19;20018;-69
2023/12/22 06:12:42;;;;;;;4.25;0.98;;;;;;;0.67;100.00;98461.31;7398348;19;20019;-69
2023/12/22 06:15:11;;;;;;;4.18;1.00;;;;;;;0.58;100.00;98468.38;7400002;19;20093;-69
2023/12/22 06:17:39;;;;;;;2.53;1.38;;;;;;;0.53;100.00;98439.22;7398079;19;20018;-69
2023/12/22 06:20:12;;;;;;;2.40;1.13;;;;;;;0.46;100.00;98432.44;7397772;19;20031;-69
2023/12/22 06:22:41;;;;;;;6.82;1.17;;;;;;;0.43;100.00;98428.19;7399621;19;20019;-69
2023/12/22 06:25:09;;;;;;;5.30;1.02;;;;;;;0.41;100.00;98458.31;7397200;19;20516;-69
2023/12/22 06:27:39;;;;;;;7.18;1.70;;;;;;;0.42;100.00;98433.41;7400542;19;20021;-69
2023/12/22 06:30:09;;;;;;;5.03;1.48;;;;;;;0.41;100.00;98450.59;7400477;19;20006;-69
2023/12/22 06:32:39;;;;;;;7.78;1.65;;;;;;;0.42;100.00;98428.22;7399852;19;20020;-70
2023/12/22 06:35:12;;;;;;;12.48;2.65;;;;;;;0.42;100.00;98412.75;7400451;19;20014;-69
2023/12/22 06:37:38;;;;;;;6.30;1.50;;;;;;;0.42;100.00;98410.19;7400667;19;20019;-69
2023/12/22 06:40:08;;;;;;;9.23;2.25;;;;;;;0.43;100.00;98411.84;7400127;19;20086;-69
2023/12/22 06:42:36;;;;;;;6.10;1.38;;;;;;;0.43;100.00;98427.31;7399523;19;20014;-69
2023/12/22 06:45:06;;;;;;;6.97;1.77;;;;;;;0.45;100.00;98431.59;7400391;19;20027;-69
2023/12/22 06:47:34;;;;;;;8.68;1.67;;;;;;;0.50;100.00;98417.78;7399630;19;20107;-69
2023/12/22 06:50:03;;;;;;;7.78;2.65;;;;;;;0.54;100.00;98440.88;7399872;19;20019;-69
2023/12/22 06:52:34;;;;;;;6.43;1.35;;;;;;;0.61;100.00;98426.16;7397297;19;20078;-69
2023/12/22 06:55:03;;;;;;;2.45;1.00;;;;;;;0.67;100.00;98441.53;7397721;19;20027;-68
2023/12/22 06:57:31;;;;;;;2.47;1.10;;;;;;;0.75;100.00;98431.06;7399129;19;20010;-69
2023/12/22 07:00:00;;;;;;;3.70;1.30;;;;;;;0.81;100.00;98424.06;7399171;19;20015;-69
2023/12/22 07:02:28;;;;;;;2.72;0.80;;;;;;;0.87;100.00;98440.31;7397252;19;20018;-69
2023/12/22 07:05:25;;;;;;;2.30;0.75;;;;;;;0.92;100.00;98441.06;7399827;19;20089;-69
2023/12/22 07:07:57;;;;;;;2.67;0.88;;;;;;;0.95;100.00;98441.84;7399279;19;20018;-69
2023/12/22 07:10:25;;;;;;;4.22;1.10;;;;;;;0.98;100.00;98436.63;7399357;19;20040;-68
2023/12/22 07:12:53;;;;;;;6.95;1.67;;;;;;;0.99;100.00;98447.81;7398449;19;20035;-68
2023/12/22 07:15:22;;;;;;;3.72;1.05;;;;;;;1.00;100.00;98439.19;7398944;19;20372;-69
2023/12/22 07:17:50;;;;;;;8.70;1.17;;;;;;;1.01;100.00;98455.53;7398840;19;20033;-68
2023/12/22 07:20:19;;;;;;;12.27;1.77;;;;;;;1.03;100.00;98464.09;7395887;19;20015;-68
2023/12/22 07:22:48;;;;;;;8.60;1.40;;;;;;;1.04;100.00;98479.56;7398076;19;20015;-67
2023/12/22 07:25:20;;;;;;;10.18;1.40;;;;;;;1.06;100.00;98459.72;7397438;19;20060;-68
2023/12/22 07:27:49;;;;;;;9.50;1.60;;;;;;;1.08;100.00;98483.78;7396379;19;20011;-68
2023/12/22 07:30:18;;;;;;;5.45;1.42;;;;;;;1.10;100.00;98482.03;7398767;19;20011;-68
2023/12/22 07:32:51;;;;;;;6.82;1.60;;;;;;;1.12;100.00;98503.47;7397597;19;20031;-68
2023/12/22 07:35:20;;;;;;;9.30;1.83;;;;;;;1.17;100.00;98492.25;7398515;19;20014;-68
2023/12/22 07:37:48;;;;;;;10.52;2.10;;;;;;;1.20;100.00;98498.19;7397892;19;20011;-68
2023/12/22 07:40:20;;;;;;;9.43;2.63;;;;;;;1.26;100.00;98518.75;7395802;19;20011;-68
2023/12/22 07:42:50;;;;;;;9.07;1.92;;;;;;;1.34;100.00;98500.50;7395780;19;20496;-68
2023/12/22 07:45:19;;;;;;;10.20;2.28;;;;;;;1.38;100.00;98507.31;7395948;19;20017;-68
2023/12/22 07:47:48;;;;;;;10.73;2.35;;;;;;;1.45;100.00;98519.22;7397904;19;20018;-69
2023/12/22 07:50:17;;;;;;;10.98;2.55;;;;;;;1.50;100.00;98511.34;7399294;19;20015;-69
2023/12/22 07:52:46;;;;;;;7.35;1.92;;;;;;;1.53;100.00;98513.91;7395497;19;20014;-69
2023/12/22 07:55:14;;;;;;;8.27;1.85;;;;;;;1.58;100.00;98504.31;7395042;19;20014;-68
2023/12/22 07:57:45;;;;;;;7.93;1.65;;;;;;;1.61;100.00;98483.56;7397866;19;20019;-68
2023/12/22 08:00:15;;;;;;;4.97;0.95;;;;;;;1.64;100.00;98529.16;7397283;19;20006;-68
2023/12/22 08:02:44;;;;;;;4.82;1.23;;;;;;;1.69;98.62;98535.09;7396378;19;20018;-68
2023/12/22 08:05:12;;;;;;;5.10;0.90;;;;;;;1.72;98.59;98541.91;7397318;19;20032;-68
2023/12/22 08:07:41;;;;;;;6.25;0.80;;;;;;;1.74;95.83;98556.53;7395752;19;20014;-67
2023/12/22 08:10:10;;;;;;;3.08;0.75;;;;;;;1.78;97.69;98542.66;7397478;19;20019;-68
2023/12/22 08:12:39;;;;;;;6.22;0.90;;;;;;;1.81;94.28;98530.53;7395421;19;20014;-68
2023/12/22 08:15:12;;;;;;;5.78;0.75;;;;;;;1.83;97.45;98563.22;7396335;19;20014;-68
2023/12/22 08:17:49;;;;;;;4.32;1.10;;;;;;;1.83;95.38;98563.22;7396839;19;20014;-68
2023/12/22 08:20:19;;;;;;;3.97;0.63;;;;;;;1.85;96.95;98617.53;7396442;19;20010;-69
2023/12/22 08:22:48;;;;;;;5.57;1.10;;;;;;;1.80;94.93;98612.44;7394941;19;20032;-68
2023/12/22 08:25:19;;;;;;;6.10;0.93;;;;;;;1.85;96.44;98574.41;7396296;19;20031;-68
2023/12/22 08:27:48;;;;;;;2.53;0.77;;;;;;;1.84;97.74;98562.34;7399239;19;20007;-68
2023/12/22 08:30:19;;;;;;;4.75;1.05;;;;;;;1.85;95.46;98578.75;7394725;19;20018;-68
2023/12/22 08:32:48;;;;;;;4.75;1.60;;;;;;;1.86;98.19;98570.06;7394343;19;20018;-68
2023/12/22 08:35:16;;;;;;;4.65;1.48;;;;;;;1.83;99.20;98567.56;7396473;19;20513;-68
2023/12/22 08:37:45;;;;;;;5.63;0.85;;;;;;;1.83;97.06;98619.28;7394954;19;20044;-68
2023/12/22 08:40:13;;;;;;;4.38;1.35;;;;;;;1.83;95.91;98599.44;7396547;19;20018;-68
2023/12/22 08:42:42;;;;;;;3.20;0.93;;;;;;;1.84;96.99;98592.53;7396318;19;20031;-69
2023/12/22 08:45:11;;;;;;;5.78;1.02;;;;;;;1.82;95.23;98595.16;7394332;19;20480;-69
2023/12/22 08:47:42;;;;;;;7.65;1.17;;;;;;;1.84;95.54;98587.38;7396529;19;20011;-68
2023/12/22 08:50:12;;;;;;;2.83;1.02;;;;;;;1.85;94.18;98600.25;7396641;19;20353;-69
2023/12/22 08:52:42;;;;;;;9.35;1.58;;;;;;;1.85;92.04;98633.03;7394550;19;20366;-68
2023/12/22 08:55:11;;;;;;;6.75;1.63;;;;;;;1.87;93.25;98592.47;7395565;19;20481;-69
2023/12/22 08:57:40;;;;;;;6.63;1.10;;;;;;;1.89;94.36;98595.88;7394017;19;20019;-69
2023/12/22 09:00:09;;;;;;;8.15;0.95;;;;;;;1.91;88.89;98599.31;7395357;19;20505;-69
2023/12/22 09:02:38;;;;;;;7.13;1.75;;;;;;;1.94;89.58;98619.91;7394736;19;20484;-69
2023/12/22 09:05:10;;;;;;;9.52;1.42;;;;;;;1.92;93.59;98601.84;7393846;19;20014;-69
2023/12/22 09:07:39;;;;;;;6.38;1.23;;;;;;;1.99;92.92;98643.09;7395954;19;20007;-69
2023/12/22 09:10:08;;;;;;;8.55;1.60;;;;;;;2.01;91.58;98678.41;7393799;19;20011;-69
2023/12/22 09:12:36;;;;;;;5.20;1.30;;;;;;;2.04;89.70;98659.38;7392960;19;20423;-69
2023/12/22 09:15:12;;;;;;;9.77;1.65;;;;;;;2.07;92.91;98642.06;7395083;19;20014;-69
2023/12/22 09:17:41;;;;;;;3.80;0.90;;;;;;;2.08;90.28;98617.03;7394918;19;20015;-69
2023/12/22 09:20:14;;;;;;;8.18;2.17;;;;;;;2.06;89.57;98632.59;7395346;19;20032;-70
2023/12/22 09:22:43;;;;;;;9.57;2.03;;;;;;;2.08;89.81;98661.84;7394386;19;20432;-68
2023/12/22 09:25:11;;;;;;;6.75;1.30;;;;;;;2.09;88.85;98676.50;7395280;19;20018;-67
2023/12/22 09:27:40;;;;;;;8.00;1.60;;;;;;;2.10;91.55;98605.78;7394872;19;20035;-68
2023/12/22 09:30:10;;;;;;;10.52;1.50;;;;;;;2.11;89.32;98659.22;7392393;19;20007;-68
2023/12/22 09:32:38;;;;;;;7.82;1.70;;;;;;;2.11;91.04;98661.81;7393517;19;20041;-68
2023/12/22 09:35:07;;;;;;;9.52;1.77;;;;;;;2.13;91.79;98645.41;7394535;19;20473;-68
2023/12/22 09:37:38;;;;;;;6.78;1.27;;;;;;;2.14;92.64;98660.00;7392842;19;20018;-68
2023/12/22 09:40:10;;;;;;;7.55;1.48;;;;;;;2.13;89.92;98679.88;7393923;19;20010;-68
2023/12/22 09:42:43;;;;;;;9.00;1.67;;;;;;;2.15;93.83;98662.59;7396137;19;20014;-68
2023/12/22 09:45:14;;;;;;;10.93;1.63;;;;;;;2.17;91.85;98688.44;7402790;19;20048;-68
2023/12/22 09:47:45;;;;;;;9.70;1.80;;;;;;;2.19;91.55;98681.50;7399085;19;20011;-68
2023/12/22 09:50:14;;;;;;;9.02;2.13;;;;;;;2.21;92.32;98703.00;7401749;19;20361;-68
2023/12/22 09:52:47;;;;;;;8.82;1.77;;;;;;;2.25;92.11;98673.56;7399322;19;20070;-68
2023/12/22 09:55:17;;;;;;;8.50;1.67;;;;;;;2.28;90.83;98676.13;7400054;19;20037;-67
2023/12/22 09:57:46;;;;;;;11.27;1.27;;;;;;;2.33;87.57;98684.63;7401595;19;20006;-67
2023/12/22 10:00:17;;;;;;;7.22;1.40;;;;;;;2.38;87.21;98700.06;7398526;19;20455;-68
2023/12/22 10:02:46;;;;;;;12.25;2.58;;;;;;;2.44;88.68;98687.00;7399158;19;20022;-68
2023/12/22 10:05:15;;;;;;;12.70;1.95;;;;;;;2.49;88.23;98697.25;7401416;19;20019;-69
2023/12/22 10:07:47;;;;;;;10.57;1.60;;;;;;;2.53;89.85;98691.13;7401374;19;20015;-68
2023/12/22 10:10:19;;;;;;;4.97;1.30;;;;;;;2.59;88.96;98698.75;7400663;19;20568;-68
2023/12/22 10:12:48;;;;;;;9.48;1.65;;;;;;;2.64;88.94;98720.22;7399113;19;20040;-67
2023/12/22 10:15:18;;;;;;;8.98;1.63;;;;;;;2.69;86.76;98709.75;7399121;19;20481;-65
2023/12/22 10:17:47;;;;;;;9.65;1.30;;;;;;;2.71;86.71;98720.94;7398473;19;20382;-65
2023/12/22 10:20:16;;;;;;;7.90;1.27;;;;;;;2.73;88.63;98686.34;7398102;19;20018;-65
2023/12/22 10:22:47;;;;;;;9.30;1.40;;;;;;;2.67;88.46;98693.41;7397838;19;20028;-66
2023/12/22 10:25:17;;;;;;;7.18;1.65;;;;;;;2.63;89.05;98699.53;7401224;19;20010;-67
2023/12/22 10:27:46;;;;;;;5.13;1.27;;;;;;;2.64;89.46;98698.66;7400779;19;20006;-66
2023/12/22 10:30:16;;;;;;;7.50;1.40;;;;;;;2.60;89.62;98692.69;7400895;19;20033;-67
2023/12/22 10:32:44;;;;;;;8.15;1.85;;;;;;;2.60;91.44;98703.03;7398842;19;20019;-70
2023/12/22 10:35:13;;;;;;;8.95;1.40;;;;;;;2.59;88.67;98737.56;7401170;19;20427;-70
2023/12/22 10:37:41;;;;;;;7.07;1.33;;;;;;;2.58;89.39;98708.25;7400143;19;20010;-71
2023/12/22 10:40:20;;;;;;;10.13;1.65;;;;;;;2.58;88.03;98757.44;7400221;19;20418;-68
2023/12/22 10:42:48;;;;;;;9.77;1.77;;;;;;;2.59;88.38;98698.75;7399917;19;20018;-68
2023/12/22 10:45:17;;;;;;;7.78;1.27;;;;;;;2.60;84.67;98670.25;7400477;19;20019;-68
2023/12/22 10:47:45;;;;;;;6.45;1.20;;;;;;;2.66;89.25;98679.59;7399857;19;20035;-68
2023/12/22 10:50:15;;;;;;;9.98;1.65;;;;;;;2.69;87.56;98723.56;7400371;19;20027;-69
2023/12/22 10:52:44;;;;;;;8.52;1.85;;;;;;;2.72;88.23;98696.75;7398458;19;20018;-69
2023/12/22 10:55:12;;;;;;;7.97;1.60;;;;;;;2.75;85.00;98670.78;7395663;19;20022;-68
2023/12/22 10:57:43;;;;;;;7.28;1.30;;;;;;;2.79;86.25;98724.19;7399509;19;20035;-68
2023/12/22 11:00:16;;;;;;;9.02;1.30;;;;;;;2.82;85.23;98712.91;7400513;19;20015;-68
2023/12/22 11:02:45;;;;;;;9.57;1.50;;;;;;;2.83;86.63;98673.19;7397880;19;20078;-68
2023/12/22 11:05:16;;;;;;;5.88;1.08;;;;;;;2.85;85.50;98682.63;7399579;19;20023;-68
2023/12/22 11:07:47;;;;;;;6.78;1.55;;;;;;;2.87;85.68;98682.56;7399970;19;20018;-67
2023/12/22 11:10:16;;;;;;;12.40;1.70;;;;;;;2.89;86.02;98689.44;7399727;19;20019;-69
2023/12/22 11:12:50;;;;;;;7.15;1.30;;;;;;;2.91;85.66;98676.47;7397898;19;20027;-68
2023/12/22 11:15:21;;;;;;;5.90;2.03;;;;;;;2.96;87.72;98684.09;7398941;19;20018;-67
2023/12/22 11:17:51;;;;;;;5.55;1.70;;;;;;;2.98;85.30;98697.88;7399069;19;20017;-68
2023/12/22 11:20:21;;;;;;;7.63;1.60;;;;;;;3.02;87.93;98717.63;7398960;19;20014;-68
2023/12/22 11:22:52;;;;;;;7.80;1.95;;;;;;;3.05;88.77;98684.72;7398020;19;20007;-68
2023/12/22 11:25:22;;;;;;;10.43;2.33;;;;;;;3.06;88.85;98689.03;7396717;19;20027;-66
2023/12/22 11:27:55;;;;;;;5.25;1.52;;;;;;;3.07;86.78;98703.69;7398418;19;20038;-67
2023/12/22 11:30:25;;;;;;;7.03;1.90;;;;;;;3.08;85.87;98723.53;7398227;19;20514;-68
2023/12/22 11:32:56;;;;;;;9.88;1.80;;;;;;;3.14;89.03;98672.47;7396161;19;20834;-68
2023/12/22 11:35:26;;;;;;;7.40;1.48;;;;;;;3.17;88.71;98690.50;7398458;19;20010;-68
2023/12/22 11:37:56;;;;;;;3.28;1.02;;;;;;;3.20;85.06;98700.81;7398423;19;20011;-68
2023/12/22 11:40:24;;;;;;;8.68;2.58;;;;;;;3.22;82.95;98691.25;7396151;19;20018;-68
2023/12/22 11:42:56;;;;;;;10.43;1.90;;;;;;;3.22;84.96;98705.06;7398126;19;20023;-68
2023/12/22 11:45:24;;;;;;;14.00;2.03;;;;;;;3.21;84.39;98663.63;7398437;19;20027;-68